createdAt,value
2024-04-25T00:00:40.011Z,10.82
2024-04-25T00:03:14.907Z,10.45
2024-04-25T00:05:52.572Z,11.18
2024-04-25T00:08:27.376Z,9.82
2024-04-25T00:11:02.227Z,10.15
2024-04-25T00:13:37.011Z,10.63
2024-04-25T00:16:11.747Z,9.40
2024-04-25T00:18:46.654Z,10.13
2024-04-25T00:21:24.141Z,9.68
2024-04-25T00:23:59.138Z,10.55
2024-04-25T00:26:33.980Z,9.82
2024-04-25T00:29:08.944Z,9.60
2024-04-25T00:31:43.791Z,10.07
2024-04-25T00:34:18.656Z,9.95
2024-04-25T00:36:56.112Z,9.40
2024-04-25T00:39:31.022Z,10.05
2024-04-25T00:42:05.876Z,9.63
2024-04-25T00:44:41.250Z,9.80
2024-04-25T00:47:18.942Z,8.90
2024-04-25T00:49:57.613Z,9.63
2024-04-25T00:52:35.878Z,9.02
2024-04-25T00:55:11.439Z,10.15
2024-04-25T00:57:47.651Z,9.80
2024-04-25T01:00:24.329Z,10.10
2024-04-25T01:02:59.743Z,9.60
2024-04-25T01:05:37.823Z,10.07
2024-04-25T01:08:16.264Z,9.48
2024-04-25T01:10:51.663Z,8.85
2024-04-25T01:13:26.575Z,8.60
2024-04-25T01:16:02.201Z,8.40
2024-04-25T01:18:37.674Z,8.70
2024-04-25T01:21:12.415Z,8.68
2024-04-25T01:23:52.886Z,9.63
2024-04-25T01:26:30.863Z,9.00
2024-04-25T01:29:09.617Z,8.10
2024-04-25T01:31:45.522Z,8.85
2024-04-25T01:34:21.143Z,8.23
2024-04-25T01:36:56.878Z,8.27
2024-04-25T01:39:32.202Z,7.93
2024-04-25T01:42:10.077Z,9.18
2024-04-25T01:44:44.854Z,7.88
2024-04-25T01:47:19.749Z,7.95
2024-04-25T01:49:54.534Z,7.95
2024-04-25T01:52:29.293Z,8.02
2024-04-25T01:55:04.091Z,6.90
2024-04-25T01:57:41.472Z,8.02
2024-04-25T02:00:16.690Z,7.63
2024-04-25T02:02:51.748Z,8.00
2024-04-25T02:05:26.668Z,8.18
2024-04-25T02:08:01.470Z,7.57
2024-04-25T02:10:36.325Z,7.45
2024-04-25T02:13:13.687Z,7.70
2024-04-25T02:15:48.505Z,7.47
2024-04-25T02:18:23.363Z,7.88
2024-04-25T02:21:14.049Z,7.70
2024-04-25T02:24:04.627Z,8.70
2024-04-25T02:26:39.438Z,8.00
2024-04-25T02:29:16.954Z,8.02
2024-04-25T02:31:51.742Z,7.55
2024-04-25T02:34:26.561Z,7.18
2024-04-25T02:37:01.388Z,7.75
2024-04-25T02:39:36.646Z,6.80
2024-04-25T02:42:11.397Z,8.48
2024-04-25T02:44:46.284Z,7.97
2024-04-25T02:47:21.240Z,8.77
2024-04-25T02:49:53.520Z,8.35
2024-04-25T02:52:28.391Z,7.00
2024-04-25T02:55:00.894Z,7.35
2024-04-25T02:57:35.676Z,7.85
2024-04-25T03:00:11.834Z,7.90
2024-04-25T03:02:46.758Z,7.75
2024-04-25T03:05:21.810Z,7.88
2024-04-25T03:07:54.108Z,7.35
2024-04-25T03:10:28.998Z,7.88
2024-04-25T03:13:01.208Z,8.00
2024-04-25T03:15:38.587Z,6.78
2024-04-25T03:18:11.023Z,7.70
2024-04-25T03:20:45.972Z,8.98
2024-04-25T03:23:18.387Z,8.10
2024-04-25T03:25:53.262Z,8.07
2024-04-25T03:28:25.550Z,8.10
2024-04-25T03:31:03.102Z,7.93
2024-04-25T03:33:35.553Z,7.53
2024-04-25T03:36:10.727Z,7.15
2024-04-25T03:38:45.558Z,7.72
2024-04-25T03:41:21.011Z,7.28
2024-04-25T03:43:55.938Z,7.10
2024-04-25T03:46:33.271Z,7.65
2024-04-25T03:49:09.591Z,7.97
2024-04-25T03:51:44.427Z,7.28
2024-04-25T03:54:19.257Z,7.40
2024-04-25T03:56:54.106Z,7.75
2024-04-25T03:59:29.222Z,7.53
2024-04-25T04:02:06.886Z,8.68
2024-04-25T04:04:42.503Z,7.57
2024-04-25T04:07:17.289Z,7.75
2024-04-25T04:09:52.090Z,7.70
2024-04-25T04:12:27.071Z,7.95
2024-04-25T04:15:01.948Z,7.57
2024-04-25T04:17:39.542Z,8.80
2024-04-25T04:20:14.541Z,8.05
2024-04-25T04:22:49.420Z,7.07
2024-04-25T04:25:24.348Z,8.07
2024-04-25T04:27:59.156Z,7.70
2024-04-25T04:30:34.007Z,8.93
2024-04-25T04:33:11.630Z,7.72
2024-04-25T04:35:46.490Z,7.25
2024-04-25T04:38:21.323Z,7.30
2024-04-25T04:40:56.352Z,7.22
2024-04-25T04:43:32.225Z,7.55
2024-04-25T04:46:07.367Z,7.80
2024-04-25T04:48:47.125Z,7.18
2024-04-25T04:51:22.456Z,7.53
2024-04-25T04:53:57.245Z,8.00
2024-04-25T04:56:32.171Z,7.63
2024-04-25T04:59:07.124Z,8.02
2024-04-25T05:01:42.018Z,8.18
2024-04-25T05:04:19.549Z,8.52
2024-04-25T05:06:54.440Z,8.30
2024-04-25T05:09:29.253Z,9.45
2024-04-25T05:12:04.363Z,10.02
2024-04-25T05:14:39.315Z,11.90
2024-04-25T05:17:14.496Z,10.88
2024-04-25T05:19:51.893Z,9.40
2024-04-25T05:22:26.686Z,11.75
2024-04-25T05:25:01.480Z,13.35
2024-04-25T05:27:38.041Z,14.48
2024-04-25T05:30:14.680Z,12.65
2024-04-25T05:32:50.550Z,14.45
2024-04-25T05:35:28.300Z,15.27
2024-04-25T05:38:03.257Z,13.82
2024-04-25T05:40:38.023Z,14.75
2024-04-25T05:43:14.303Z,12.68
2024-04-25T05:45:49.416Z,12.63
2024-04-25T05:48:24.419Z,13.75
2024-04-25T05:51:01.896Z,12.70
2024-04-25T05:53:36.669Z,13.95
2024-04-25T05:56:11.509Z,12.50
2024-04-25T05:58:49.787Z,12.77
2024-04-25T06:01:24.696Z,13.23
2024-04-25T06:03:59.566Z,13.88
2024-04-25T06:06:37.006Z,14.38
2024-04-25T06:09:11.872Z,11.70
2024-04-25T06:11:46.966Z,12.77
2024-04-25T06:14:23.887Z,13.10
2024-04-25T06:16:58.826Z,10.70
2024-04-25T06:19:33.680Z,10.38
2024-04-25T06:22:11.001Z,11.15
2024-04-25T06:24:46.040Z,12.85
2024-04-25T06:27:20.757Z,11.63
2024-04-25T06:29:55.542Z,10.35
2024-04-25T06:32:30.495Z,10.95
2024-04-25T06:35:05.341Z,11.73
2024-04-25T06:37:42.699Z,10.85
2024-04-25T06:40:18.280Z,12.38
2024-04-25T06:42:53.252Z,11.60
2024-04-25T06:45:28.252Z,13.63
2024-04-25T06:48:03.389Z,11.07
2024-04-25T06:50:38.862Z,11.52
2024-04-25T06:53:17.383Z,9.05
2024-04-25T06:55:52.280Z,10.00
2024-04-25T06:58:27.068Z,10.55
2024-04-25T07:01:02.154Z,11.45
2024-04-25T07:03:37.743Z,10.60
2024-04-25T07:06:12.679Z,10.20
2024-04-25T07:08:50.079Z,10.68
2024-04-25T07:11:31.920Z,15.40
2024-04-25T07:14:10.511Z,26.35
2024-04-25T07:16:45.463Z,18.42
2024-04-25T07:19:20.240Z,19.50
2024-04-25T07:21:56.130Z,20.55
2024-04-25T07:24:34.047Z,19.75
2024-04-25T07:27:09.207Z,16.70
2024-04-25T07:29:48.382Z,18.40
2024-04-25T07:32:23.745Z,18.15
2024-04-25T07:34:59.706Z,18.13
2024-04-25T07:37:34.980Z,16.63
2024-04-25T07:40:13.096Z,17.95
2024-04-25T07:42:47.919Z,19.25
2024-04-25T07:45:22.650Z,17.98
2024-04-25T07:47:57.616Z,17.58
2024-04-25T07:50:32.590Z,16.27
2024-04-25T07:53:07.770Z,16.85
2024-04-25T07:55:46.431Z,16.42
2024-04-25T07:58:21.367Z,17.23
2024-04-25T08:00:56.330Z,17.08
2024-04-25T08:03:31.362Z,15.75
2024-04-25T08:06:06.484Z,14.73
2024-04-25T08:08:41.463Z,16.25
2024-04-25T08:11:18.934Z,14.45
2024-04-25T08:13:53.743Z,13.77
2024-04-25T08:16:28.665Z,14.75
2024-04-25T08:19:03.502Z,15.13
2024-04-25T08:21:38.616Z,14.48
2024-04-25T08:24:14.418Z,13.13
2024-04-25T08:26:51.897Z,13.48
2024-04-25T08:29:26.831Z,12.98
2024-04-25T08:32:01.606Z,13.95
2024-04-25T08:34:36.456Z,13.40
2024-04-25T08:37:11.262Z,13.30
2024-04-25T08:39:46.159Z,13.10
2024-04-25T08:42:23.579Z,12.50
2024-04-25T08:44:58.713Z,12.88
2024-04-25T08:47:37.264Z,12.68
2024-04-25T08:50:15.288Z,11.63
2024-04-25T08:52:53.024Z,12.32
2024-04-25T08:55:28.451Z,10.63
2024-04-25T08:58:06.763Z,11.88
2024-04-25T09:00:43.483Z,11.57
2024-04-25T09:03:18.750Z,10.75
2024-04-25T09:05:53.602Z,11.73
2024-04-25T09:08:28.466Z,12.98
2024-04-25T09:11:03.287Z,11.55
2024-04-25T09:13:40.655Z,11.18
2024-04-25T09:16:15.914Z,10.63
2024-04-25T09:18:50.843Z,10.52
2024-04-25T09:21:25.658Z,10.70
2024-04-25T09:24:00.453Z,9.25
2024-04-25T09:26:36.242Z,9.95
2024-04-25T09:29:14.122Z,11.88
2024-04-25T09:31:48.911Z,11.40
2024-04-25T09:34:23.696Z,12.65
2024-04-25T09:36:58.935Z,11.95
2024-04-25T09:39:33.788Z,11.52
2024-04-25T09:42:09.357Z,12.40
2024-04-25T09:44:46.792Z,11.68
2024-04-25T09:47:37.345Z,13.40
2024-04-25T09:50:16.460Z,13.43
2024-04-25T09:52:57.952Z,12.30
2024-04-25T09:55:41.193Z,12.95
2024-04-25T09:58:25.547Z,11.73
2024-04-25T10:01:04.224Z,11.73
2024-04-25T10:03:39.708Z,11.50
2024-04-25T10:06:15.023Z,10.88
2024-04-25T10:08:50.815Z,11.52
2024-04-25T10:11:25.662Z,9.85
2024-04-25T10:14:01.053Z,10.30
2024-04-25T10:16:39.961Z,8.38
2024-04-25T10:19:14.815Z,9.50
2024-04-25T10:21:50.313Z,9.63
2024-04-25T10:24:25.136Z,9.93
2024-04-25T10:26:59.889Z,9.25
2024-04-25T10:29:35.120Z,8.27
2024-04-25T10:32:12.608Z,8.50
2024-04-25T10:34:48.526Z,7.88
2024-04-25T10:37:23.525Z,8.35
2024-04-25T10:40:01.426Z,7.70
2024-04-25T10:42:36.367Z,8.70
2024-04-25T10:45:11.877Z,8.82
2024-04-25T10:47:49.496Z,7.18
2024-04-25T10:50:24.405Z,10.77
2024-04-25T10:53:01.094Z,47.40
2024-04-25T10:55:35.899Z,48.70
2024-04-25T10:58:15.100Z,42.50
2024-04-25T11:00:50.118Z,34.85
2024-04-25T11:03:27.494Z,33.20
2024-04-25T11:06:02.876Z,34.17
2024-04-25T11:08:37.939Z,29.80
2024-04-25T11:11:13.707Z,30.25
2024-04-25T11:13:49.087Z,26.10
2024-04-25T11:16:24.166Z,25.08
2024-04-25T11:19:07.686Z,24.10
2024-04-25T11:21:51.629Z,21.45
2024-04-25T11:24:27.026Z,19.95
2024-04-25T11:27:03.543Z,19.58
2024-04-25T11:29:38.434Z,16.52
2024-04-25T11:32:13.353Z,17.05
2024-04-25T11:34:50.709Z,15.98
2024-04-25T11:37:25.581Z,16.83
2024-04-25T11:40:00.553Z,15.52
2024-04-25T11:42:35.510Z,15.40
2024-04-25T11:45:10.890Z,14.50
2024-04-25T11:47:45.974Z,14.25
2024-04-25T11:50:23.378Z,14.05
2024-04-25T11:52:58.133Z,14.55
2024-04-25T11:55:32.874Z,12.65
2024-04-25T11:58:08.852Z,11.38
2024-04-25T12:00:49.237Z,11.30
2024-04-25T12:03:24.164Z,12.05
2024-04-25T12:06:02.757Z,11.23
2024-04-25T12:08:39.176Z,10.75
2024-04-25T12:11:14.087Z,10.98
2024-04-25T12:13:50.185Z,8.63
2024-04-25T12:16:25.340Z,10.10
2024-04-25T12:19:00.128Z,9.05
2024-04-25T12:21:37.866Z,8.73
2024-04-25T12:24:12.628Z,7.40
2024-04-25T12:26:47.565Z,7.30
2024-04-25T12:29:22.370Z,6.72
2024-04-25T12:31:59.076Z,7.25
2024-04-25T12:34:33.993Z,6.53
2024-04-25T12:37:11.317Z,6.95
2024-04-25T12:39:46.195Z,6.82
2024-04-25T12:42:23.946Z,7.13
2024-04-25T12:44:58.964Z,6.38
2024-04-25T12:47:33.939Z,6.60
2024-04-25T12:50:14.120Z,6.43
2024-04-25T12:52:53.573Z,6.28
2024-04-25T12:55:28.848Z,6.80
2024-04-25T12:58:03.653Z,5.70
2024-04-25T13:00:38.599Z,6.35
2024-04-25T13:03:13.492Z,6.65
2024-04-25T13:05:49.050Z,6.00
2024-04-25T13:08:26.652Z,6.53
2024-04-25T13:11:01.561Z,6.00
2024-04-25T13:13:36.408Z,6.13
2024-04-25T13:16:12.714Z,6.07
2024-04-25T13:18:45.251Z,6.38
2024-04-25T13:21:20.216Z,6.03
2024-04-25T13:23:57.834Z,6.15
2024-04-25T13:26:35.538Z,5.20
2024-04-25T13:29:14.219Z,5.57
2024-04-25T13:31:49.330Z,5.47
2024-04-25T13:34:24.326Z,5.93
2024-04-25T13:36:59.166Z,5.55
2024-04-25T13:39:36.692Z,5.88
2024-04-25T13:42:13.121Z,5.07
2024-04-25T13:44:47.994Z,5.20
2024-04-25T13:47:22.948Z,5.57
2024-04-25T13:49:57.837Z,5.22
2024-04-25T13:52:32.707Z,5.90
2024-04-25T13:55:10.779Z,4.82
2024-04-25T13:57:45.525Z,5.95
2024-04-25T14:00:21.012Z,5.63
2024-04-25T14:02:55.823Z,5.65
2024-04-25T14:05:30.684Z,5.90
2024-04-25T14:08:05.582Z,4.55
2024-04-25T14:10:43.000Z,5.40
2024-04-25T14:13:17.790Z,5.75
2024-04-25T14:15:52.736Z,5.10
2024-04-25T14:18:27.685Z,5.07
2024-04-25T14:21:02.625Z,5.20
2024-04-25T14:23:37.373Z,5.18
2024-04-25T14:26:30.785Z,4.78
2024-04-25T14:29:05.966Z,4.93
2024-04-25T14:31:40.732Z,4.47
2024-04-25T14:34:15.594Z,5.20
2024-04-25T14:36:51.913Z,4.82
2024-04-25T14:39:26.812Z,4.47
2024-04-25T14:42:04.218Z,4.72
2024-04-25T14:44:41.344Z,4.43
2024-04-25T14:47:16.273Z,5.20
2024-04-25T14:49:51.379Z,4.57
2024-04-25T14:52:26.940Z,4.72
2024-04-25T14:55:01.709Z,4.00
2024-04-25T14:57:39.032Z,4.43
2024-04-25T15:00:15.140Z,5.18
2024-04-25T15:02:49.997Z,4.68
2024-04-25T15:05:24.786Z,4.93
2024-04-25T15:07:59.628Z,4.75
2024-04-25T15:10:35.284Z,4.10
2024-04-25T15:13:12.699Z,5.28
2024-04-25T15:15:47.535Z,4.13
2024-04-25T15:18:22.403Z,4.30
2024-04-25T15:20:57.404Z,4.95
2024-04-25T15:23:32.315Z,4.65
2024-04-25T15:26:07.520Z,4.32
2024-04-25T15:28:44.998Z,5.30
2024-04-25T15:31:23.757Z,5.13
2024-04-25T15:33:58.755Z,5.57
2024-04-25T15:36:33.637Z,5.20
2024-04-25T15:39:08.459Z,4.60
2024-04-25T15:41:43.641Z,4.75
2024-04-25T15:44:21.072Z,4.97
2024-04-25T15:46:55.868Z,4.75
2024-04-25T15:49:30.681Z,4.65
2024-04-25T15:52:05.554Z,6.18
2024-04-25T15:54:43.190Z,3.95
2024-04-25T15:57:18.564Z,4.25
2024-04-25T15:59:55.957Z,4.45
2024-04-25T16:02:31.682Z,5.05
2024-04-25T16:05:06.989Z,4.55
2024-04-25T16:07:41.854Z,4.15
2024-04-25T16:10:16.871Z,3.60
2024-04-25T16:12:51.783Z,3.60
2024-04-25T16:15:29.286Z,3.92
2024-04-25T16:18:04.268Z,3.65
2024-04-25T16:20:39.171Z,3.80
2024-04-25T16:23:14.056Z,4.32
2024-04-25T16:25:48.857Z,3.65
2024-04-25T16:28:23.728Z,4.85
2024-04-25T16:31:01.460Z,3.72
2024-04-25T16:33:36.438Z,3.97
2024-04-25T16:36:18.390Z,3.60
2024-04-25T16:38:53.146Z,3.25
2024-04-25T16:41:27.923Z,3.47
2024-04-25T16:44:02.704Z,3.38
2024-04-25T16:46:41.507Z,4.60
2024-04-25T16:49:13.817Z,3.38
2024-04-25T16:51:48.610Z,3.88
2024-04-25T16:54:25.775Z,3.78
2024-04-25T16:57:00.619Z,3.35
2024-04-25T16:59:35.665Z,3.63
2024-04-25T17:02:13.499Z,4.57
2024-04-25T17:04:50.562Z,3.55
2024-04-25T17:07:25.402Z,3.97
2024-04-25T17:10:00.339Z,3.60
2024-04-25T17:12:35.058Z,4.05
2024-04-25T17:15:11.041Z,3.70
2024-04-25T17:17:49.032Z,4.45
2024-04-25T17:20:23.986Z,3.97
2024-04-25T17:22:58.786Z,3.55
2024-04-25T17:25:33.638Z,4.43
2024-04-25T17:28:08.588Z,3.72
2024-04-25T17:30:43.328Z,3.97
2024-04-25T17:33:20.750Z,4.32
2024-04-25T17:35:56.060Z,3.50
2024-04-25T17:38:31.985Z,4.60
2024-04-25T17:41:07.066Z,3.88
2024-04-25T17:43:42.111Z,3.97
2024-04-25T17:46:16.942Z,4.00
2024-04-25T17:48:54.779Z,4.57
2024-04-25T17:51:36.485Z,4.40
2024-04-25T17:54:11.738Z,3.67
2024-04-25T17:56:46.588Z,3.85
2024-04-25T17:59:21.427Z,4.40
2024-04-25T18:01:57.515Z,4.25
2024-04-25T18:04:35.423Z,4.18
2024-04-25T18:07:13.885Z,4.32
2024-04-25T18:09:48.824Z,6.72
2024-04-25T18:12:23.622Z,17.90
2024-04-25T18:14:58.468Z,18.08
2024-04-25T18:17:33.342Z,27.92
2024-04-25T18:20:11.509Z,42.08
2024-04-25T18:22:46.409Z,41.65
2024-04-25T18:25:21.272Z,39.65
2024-04-25T18:27:56.053Z,42.13
2024-04-25T18:30:31.018Z,40.22
2024-04-25T18:33:06.195Z,41.88
2024-04-25T18:35:43.855Z,35.20
2024-04-25T18:38:18.771Z,39.60
2024-04-25T18:40:53.591Z,35.55
2024-04-25T18:43:28.673Z,28.00
2024-04-25T18:46:03.615Z,22.23
2024-04-25T18:48:40.512Z,23.27
2024-04-25T18:51:20.262Z,20.23
2024-04-25T18:53:55.152Z,20.15
2024-04-25T18:56:30.004Z,24.20
2024-04-25T18:59:04.824Z,21.35
2024-04-25T19:01:39.668Z,20.88
2024-04-25T19:04:14.458Z,21.70
2024-04-25T19:06:53.001Z,21.20
2024-04-25T19:09:28.080Z,19.27
2024-04-25T19:12:02.962Z,21.45
2024-04-25T19:14:37.896Z,20.58
2024-04-25T19:17:14.406Z,21.27
2024-04-25T19:19:49.894Z,19.67
2024-04-25T19:22:29.857Z,18.23
2024-04-25T19:25:04.761Z,16.58
2024-04-25T19:27:39.704Z,18.33
2024-04-25T19:30:15.631Z,16.48
2024-04-25T19:32:50.604Z,18.17
2024-04-25T19:35:25.699Z,18.85
2024-04-25T19:38:05.262Z,16.60
2024-04-25T19:40:40.330Z,16.63
2024-04-25T19:43:15.133Z,14.90
2024-04-25T19:45:49.913Z,15.20
2024-04-25T19:48:25.366Z,15.52
2024-04-25T19:51:01.667Z,15.05
2024-04-25T19:53:39.312Z,14.98
2024-04-25T19:56:15.018Z,13.60
2024-04-25T19:58:49.917Z,14.27
2024-04-25T20:01:24.867Z,15.15
2024-04-25T20:03:59.655Z,14.73
2024-04-25T20:06:34.490Z,13.48
2024-04-25T20:09:12.145Z,13.15
2024-04-25T20:11:46.994Z,15.05
2024-04-25T20:14:22.479Z,14.68
2024-04-25T20:16:59.195Z,16.02
2024-04-25T20:20:01.776Z,14.80
2024-04-25T20:22:36.667Z,15.00
2024-04-25T20:25:14.187Z,15.38
2024-04-25T20:27:49.897Z,14.90
2024-04-25T20:30:24.679Z,14.77
2024-04-25T20:32:59.544Z,13.98
2024-04-25T20:35:34.400Z,13.18
2024-04-25T20:38:09.221Z,14.23
2024-04-25T20:40:46.761Z,13.73
2024-04-25T20:43:21.540Z,15.63
2024-04-25T20:45:56.371Z,14.02
2024-04-25T20:48:31.216Z,13.90
2024-04-25T20:51:06.407Z,13.02
2024-04-25T20:53:43.388Z,13.93
2024-04-25T20:56:22.913Z,14.15
2024-04-25T20:58:57.867Z,14.48
2024-04-25T21:01:33.406Z,14.00
2024-04-25T21:04:08.469Z,14.48
2024-04-25T21:06:46.481Z,14.00
2024-04-25T21:09:22.904Z,14.50
2024-04-25T21:12:00.408Z,14.23
2024-04-25T21:14:38.608Z,14.90
2024-04-25T21:17:16.341Z,13.02
2024-04-25T21:19:51.174Z,14.85
2024-04-25T21:22:25.989Z,14.55
2024-04-25T21:25:00.776Z,14.32
2024-04-25T21:27:38.277Z,13.90
2024-04-25T21:30:13.456Z,14.70
2024-04-25T21:32:48.426Z,12.65
2024-04-25T21:35:23.292Z,15.38
2024-04-25T21:37:58.104Z,15.02
2024-04-25T21:40:33.884Z,16.15
2024-04-25T21:43:11.230Z,14.57
2024-04-25T21:45:46.003Z,14.48
2024-04-25T21:48:23.416Z,13.02
2024-04-25T21:50:58.273Z,13.43
2024-04-25T21:53:34.048Z,13.60
2024-04-25T21:56:09.634Z,15.02
2024-04-25T21:58:46.978Z,13.30
2024-04-25T22:01:23.352Z,13.88
2024-04-25T22:03:59.555Z,13.20
2024-04-25T22:06:34.790Z,13.25
2024-04-25T22:09:09.552Z,13.73
2024-04-25T22:11:44.372Z,13.27
2024-04-25T22:14:22.625Z,13.88
2024-04-25T22:16:57.948Z,14.27
2024-04-25T22:19:32.944Z,13.30
2024-04-25T22:22:07.741Z,13.52
2024-04-25T22:24:43.230Z,13.52
2024-04-25T22:27:22.369Z,13.68
2024-04-25T22:29:59.948Z,13.82
2024-04-25T22:32:34.888Z,14.10
2024-04-25T22:35:10.159Z,12.77
2024-04-25T22:37:45.859Z,13.32
2024-04-25T22:40:20.718Z,12.88
2024-04-25T22:42:55.518Z,14.23
2024-04-25T22:45:39.195Z,13.57
2024-04-25T22:48:16.060Z,13.10
2024-04-25T22:50:50.907Z,12.35
2024-04-25T22:53:25.809Z,12.43
2024-04-25T22:56:00.597Z,12.95
2024-04-25T22:58:35.376Z,12.70
2024-04-25T23:01:12.888Z,12.60
2024-04-25T23:03:47.784Z,12.27
2024-04-25T23:06:22.686Z,13.02
2024-04-25T23:08:57.529Z,12.27
2024-04-25T23:11:32.430Z,11.80
2024-04-25T23:14:09.117Z,11.77
2024-04-25T23:16:46.474Z,11.38
2024-04-25T23:19:21.424Z,11.60
2024-04-25T23:21:56.315Z,12.10
2024-04-25T23:24:31.292Z,12.48
2024-04-25T23:27:06.255Z,11.90
2024-04-25T23:29:41.122Z,11.55
2024-04-25T23:32:18.549Z,12.32
2024-04-25T23:34:53.290Z,12.43
2024-04-25T23:37:28.239Z,11.95
2024-04-25T23:40:04.465Z,11.27
2024-04-25T23:42:39.686Z,11.30
2024-04-25T23:45:14.552Z,11.82
2024-04-25T23:47:51.946Z,11.32
2024-04-25T23:50:26.771Z,11.38
2024-04-25T23:53:01.507Z,12.00
2024-04-25T23:55:36.303Z,11.23
2024-04-25T23:58:11.107Z,11.52
